Jacksonville NAS, Florida
Current Conditions -  °F | °C
As of 6:53 AM on Saturday 25 Oct 2014 (Local Time) from KNIP Reporting Station
Clear Clear  
Wind Chill: 60°   Ceiling: Unl
Heat Index: 60°   Visibility: 10mi
Dew Point: 52°   Wind: 5mph
Humidity: 75%   Direction: 300°WNW
Pressure: 30"   Gusts: NA
Location:  30.23°N, 81.68°W
Report Text: KNIP 251053Z 30004KT 10SM CLR 16/11 A3000 RMK AO2 SLP154 T01560111
Loading
Personal Weather Stations






























Interactive Weather Map
Tropical Storm Tracking
New forecast layout! Learn more

10-Day Weather Forecast

Advertisements
Track Severe Weather on mobile